Terminal Aerodrome Forecast
Issued by NWS New Orleans/Baton Rouge, LA

Home | Current Version | Previous Version | Text Only | Print | Product List | Glossary On
Versions: 1 2 3 4 5 6 7 8 9 10 11 12 13 14 15 16 17 18
000
FTUS44 KLIX 311100 RRA
TAFBTR
TAF
KBTR 311142Z 3112/0112 VRB03KT P6SM FEW250
     FM311400 31007KT P6SM SKC
     FM311700 33011KT P6SM SKC
     FM312000 35016G23KT P6SM SKC
     FM010500 01009KT P6SM FEW250=

USA.gov is the U.S. government's official web portal to all federal, state and local government web resources and services.